Etusivu
METAR-TAF:

METAR-TAF

Lentoasemat :

Guaratinguetá, São Paulo, Brasilia

Leveyspiiri: 22-47S, Pituuspiiri: 045-12W, korkeus merenpinnasta: 537 m

Tämänhetkinen sää

Tämä raportti tehtiin 21 minuuttia sitten, kello 17.00 UTC
Tuuli 3 kn idästä/koillisesta
Lämpötila 27°C
Kosteus 39%
Ilmanpaine 1020 hPa
Näkyvyys 10 km tai enemmän
Muutamia pilviä 3000 ft:n korkeudessa

METAR: SBGW 141700Z 07003KT 9999 FEW030 27/12 Q1020

Aika: 14:21 (17:21 UTC)

Sääennuste

Tämä raportti tehtiin 8 tuntia ja 21 minuuttia sitten, kello 09.00 UTC
Ennuste voimassa 14. päivästä klo 12 UTC - 14. päivään klo 24 UTC
Tuuli 6 kn idästä
Näkyvyys: 7000 m
Hajonneita pilviä 1600 ft:n korkeudessa
Ajoittain
14. päivästä klo 12 UTC - 14. päivään klo 15 UTC
Näkyvyys: 3500 m
Hajonneita pilviä 1000 ft:n korkeudessa
utua

TAF: SBGW 140900Z 1412/1424 09006KT 7000 BKN016 TX24/1417Z TN17/1424Z TEMPO 1412/1415 3500 BR BKN010 RMK PDZ

Säähavainnot ja -ennusteet yli 4000 lentoasemalta (METAR- ja TAF-raportit).

Käytössä olevat sääasemat on merkitty karttaan keltaisilla ja punaisilla pisteillä.

Aseta hiiri pisteen päälle nähdäksesi sääaseman nimen.

Klikkaa sitten nähdäksesi säähavainnot ja -ennusteet.

Kartan vaihtaminen: klikkaa mustalla rastilla varustettuja vihreitä pisteitä, niin voit zoomata sisään; viivalla varustettua vihreää pistettä, niin voit zoomata ulos tai vihreitä nuolia, niin pääset viereisille kartoille.


METAR-TAF: